Dobrodošli na spletni strani vremenske postaje Senovo. Vse informacije so informativnega značaja, saj vremenska postaja ni del državne mreže meteoroloških postaj. AKTUALNIH OBVESTIL NI.


Posebna pozornost v zvezi z vremenskimi dogajanji ni potrebna.    Posebna pozornost v zvezi z vremenskimi dogajanji ni potrebna.

Pogled proti Armezu več informacij Pogled proti Armezu


Bohor več informacij Bohor


Radar strel več informacij blitzortung!


Radar padavin več informacij rain snow radar


Obiščite še:

Template documentation
and downloads

And another site



Weather Underground, zgodovina - Tekstovno

Dnevni povzetek za Maj 21, 2017 Enote:  Angleško    Metrično   Obe
« Predhodni Dan
Naslednji Dan »
Dnevni Tedenski Mesečni Letni Po meri
  Višja: Nižja: Povprečje:
Temperatura: TemperatureC °F 12.5 °F 17.8 °F
Točka rosišča: DewpointC °F 5.3 °F 9.2 °F
Vlažnost: Humidity % 43 % 59 %
Hitrost vetra: WindSpeedKMH mph 0.0 mph 5.7 mph
Sunki vetra: WindSpeedGustKMH mph - -
Veter:- - ESE
Zračni tlak: PressurehPa in 1016.1 in -
Padavine: 0.0 in    
Historical Graphs
 
 
Tabelarni podarki za Maj 21, 2017
Čas Temperatura Točka rosišča Zračni tlak Veter Hitrost vetra Sunki vetra Vlažnost Intenziteta padavin (urna)
TemperatureC °F DewpointC °F PressurehPa in Calm     Humidity % HourlyPrecipMM in
00:01 14.1 °F 12.7 °F 1016.8 in SSE 1.4 mph 5.0 mph 91 % 0.0 in
00:06 14.1 °F 12.7 °F 1016.8 in South 1.4 mph 4.0 mph 91 % 0.0 in
00:11 14.1 °F 12.7 °F 1016.8 in SSW 2.1 mph 4.3 mph 91 % 0.0 in
00:16 14.1 °F 12.8 °F 1016.8 in SSW 1.3 mph 4.3 mph 92 % 0.0 in
00:21 14.1 °F 12.8 °F 1016.8 in South 0.3 mph 3.2 mph 92 % 0.0 in
00:26 14.1 °F 12.8 °F 1016.8 in SSW 0.8 mph 3.5 mph 92 % 0.0 in
00:31 14.1 °F 12.8 °F 1016.8 in South 0.6 mph 3.5 mph 92 % 0.0 in
00:36 14.1 °F 12.8 °F 1016.8 in Calm     92 % 0.0 in
00:41 14.1 °F 12.8 °F 1016.8 in Calm     92 % 0.0 in
00:46 14.1 °F 12.8 °F 1016.8 in Calm     92 % 0.0 in
00:51 14.1 °F 12.8 °F 1016.8 in Calm     92 % 0.0 in
00:56 14.1 °F 12.8 °F 1016.8 in WSW 0.3 mph 4.0 mph 92 % 0.0 in
01:01 14.1 °F 12.8 °F 1016.8 in SW 0.8 mph 4.0 mph 92 % 0.0 in
01:06 14.1 °F 12.8 °F 1016.8 in SW 0.6 mph 3.2 mph 92 % 0.0 in
01:11 14.1 °F 12.8 °F 1016.8 in WSW 0.3 mph 3.2 mph 92 % 0.0 in
01:17 14.1 °F 12.8 °F 1016.8 in SSE 0.5 mph 4.3 mph 92 % 0.0 in
01:22 14.0 °F 12.7 °F 1016.8 in SSE 1.3 mph 5.5 mph 92 % 0.0 in
01:27 14.0 °F 12.7 °F 1016.8 in SSE 1.3 mph 5.5 mph 92 % 0.0 in
01:32 14.0 °F 12.7 °F 1016.8 in SSE 0.8 mph 4.3 mph 92 % 0.0 in
01:37 14.0 °F 12.7 °F 1016.8 in SSE 0.3 mph 1.4 mph 92 % 0.0 in
01:42 14.0 °F 12.7 °F 1016.8 in Calm     92 % 0.0 in
01:47 14.0 °F 12.7 °F 1016.8 in Calm     92 % 0.0 in
01:52 13.9 °F 12.8 °F 1016.8 in Calm     93 % 0.0 in
01:57 13.9 °F 12.8 °F 1016.8 in Calm     93 % 0.0 in
02:02 13.8 °F 12.7 °F 1016.1 in Calm     93 % 0.0 in
02:07 13.8 °F 12.7 °F 1016.1 in SW 1.0 mph 4.0 mph 93 % 0.0 in
02:12 13.8 °F 12.5 °F 1016.1 in SW 1.1 mph 4.0 mph 92 % 0.0 in
02:17 13.7 °F 12.4 °F 1016.1 in SSE 1.3 mph 5.5 mph 92 % 0.0 in
02:22 13.7 °F 12.4 °F 1016.1 in South 1.1 mph 5.5 mph 92 % 0.0 in
02:27 13.6 °F 12.3 °F 1016.1 in South 1.4 mph 4.7 mph 92 % 0.0 in
02:32 13.5 °F 12.4 °F 1016.8 in South 1.8 mph 4.7 mph 93 % 0.0 in
02:37 13.5 °F 12.4 °F 1016.8 in WSW 1.4 mph 4.7 mph 93 % 0.0 in
02:42 13.5 °F 12.4 °F 1016.8 in WSW 2.3 mph 4.3 mph 93 % 0.0 in
02:47 13.5 °F 12.4 °F 1016.8 in SW 1.4 mph 4.3 mph 93 % 0.0 in
02:52 13.5 °F 12.4 °F 1016.8 in SSW 0.3 mph 4.0 mph 93 % 0.0 in
02:57 13.5 °F 12.4 °F 1016.8 in ESE 0.5 mph 4.3 mph 93 % 0.0 in
03:02 13.5 °F 12.4 °F 1016.8 in WSW 1.1 mph 5.8 mph 93 % 0.0 in
03:07 13.5 °F 12.4 °F 1016.8 in West 1.6 mph 5.8 mph 93 % 0.0 in
03:12 13.5 °F 12.4 °F 1016.8 in WSW 0.8 mph 4.3 mph 93 % 0.0 in
03:17 13.5 °F 12.4 °F 1016.8 in SW 0.6 mph 4.7 mph 93 % 0.0 in
03:22 13.5 °F 12.4 °F 1016.8 in WSW 1.6 mph 5.8 mph 93 % 0.0 in
03:27 13.5 °F 12.2 °F 1016.8 in WNW 2.6 mph 9.0 mph 92 % 0.0 in
03:32 13.8 °F 11.7 °F 1016.8 in NE 4.3 mph 10.5 mph 87 % 0.0 in
03:37 14.2 °F 10.6 °F 1016.8 in NE 5.6 mph 16.3 mph 79 % 0.0 in
03:42 14.7 °F 9.9 °F 1016.8 in NNE 6.4 mph 16.3 mph 73 % 0.0 in
03:47 15.0 °F 8.9 °F 1016.8 in NE 7.4 mph 16.9 mph 67 % 0.0 in
03:52 15.4 °F 8.8 °F 1016.8 in NE 7.2 mph 16.9 mph 65 % 0.0 in
03:57 15.5 °F 8.5 °F 1016.8 in ENE 6.6 mph 15.1 mph 63 % 0.0 in
04:02 15.6 °F 8.3 °F 1016.8 in NE 6.0 mph 15.1 mph 62 % 0.0 in
04:07 15.7 °F 8.4 °F 1016.8 in NE 4.3 mph 11.9 mph 62 % 0.0 in
04:12 15.7 °F 7.9 °F 1016.8 in ENE 4.3 mph 12.6 mph 60 % 0.0 in
04:17 15.9 °F 7.4 °F 1016.8 in NE 5.3 mph 16.3 mph 57 % 0.0 in
04:22 15.9 °F 7.1 °F 1016.8 in NNE 4.8 mph 16.3 mph 56 % 0.0 in
04:27 16.0 °F 7.2 °F 1016.8 in ENE 6.3 mph 15.8 mph 56 % 0.0 in
04:32 16.1 °F 7.1 °F 1016.1 in NE 7.9 mph 16.6 mph 55 % 0.0 in
04:37 16.1 °F 6.8 °F 1016.1 in NNE 8.4 mph 22.4 mph 54 % 0.0 in
04:42 16.3 °F 6.1 °F 1016.1 in NNE 8.7 mph 22.4 mph 51 % 0.0 in
04:47 16.4 °F 6.2 °F 1016.1 in NNE 8.7 mph 19.1 mph 51 % 0.0 in
04:52 16.5 °F 6.1 °F 1016.1 in NNE 9.2 mph 19.1 mph 50 % 0.0 in
04:57 16.5 °F 5.7 °F 1016.1 in NE 10.3 mph 19.5 mph 49 % 0.0 in
05:02 16.5 °F 6.1 °F 1016.8 in ENE 10.3 mph 19.5 mph 50 % 0.0 in
05:07 16.5 °F 5.7 °F 1016.8 in ENE 8.2 mph 17.7 mph 49 % 0.0 in
05:12 16.5 °F 5.7 °F 1016.8 in NE 7.9 mph 17.7 mph 49 % 0.0 in
05:13 16.5 °F 5.7 °F 1016.8 in NE 8.2 mph 17.7 mph 49 % 0.0 in
05:18 16.4 °F 5.9 °F 1016.8 in NNE 6.9 mph 13.7 mph 50 % 0.0 in
05:23 16.4 °F 5.7 °F 1016.8 in NE 6.8 mph 13.0 mph 49 % 0.0 in
05:28 16.3 °F 5.6 °F 1016.8 in NE 8.2 mph 16.6 mph 49 % 0.0 in
05:33 16.3 °F 5.6 °F 1016.8 in NNE 8.4 mph 16.6 mph 49 % 0.0 in
05:38 16.4 °F 5.7 °F 1016.8 in NE 10.0 mph 23.3 mph 49 % 0.0 in
05:43 16.3 °F 5.3 °F 1016.8 in NE 10.9 mph 23.3 mph 48 % 0.0 in
05:48 16.3 °F 5.6 °F 1016.8 in NNE 10.5 mph 23.0 mph 49 % 0.0 in
05:53 16.2 °F 5.4 °F 1016.8 in NE 10.8 mph 21.6 mph 49 % 0.0 in
05:58 16.2 °F 5.4 °F 1016.8 in NE 13.0 mph 36.0 mph 49 % 0.0 in
06:03 16.2 °F 5.8 °F 1016.8 in NE 14.0 mph 36.0 mph 50 % 0.0 in
06:08 16.2 °F 5.4 °F 1016.8 in NE 14.0 mph 27.0 mph 49 % 0.0 in
06:13 16.1 °F 5.7 °F 1018.2 in NE 15.6 mph 27.0 mph 50 % 0.0 in
06:18 16.1 °F 5.7 °F 1018.2 in NE 13.2 mph 24.8 mph 50 % 0.0 in
06:23 16.1 °F 5.7 °F 1018.2 in NNE 10.3 mph 23.0 mph 50 % 0.0 in
06:28 16.0 °F 5.8 °F 1018.2 in NNE 8.2 mph 20.9 mph 51 % 0.0 in
06:33 15.9 °F 6.1 °F 1018.2 in NNE 8.8 mph 21.2 mph 52 % 0.0 in
06:38 15.9 °F 6.1 °F 1018.2 in NNE 9.7 mph 21.2 mph 52 % 0.0 in
06:43 15.8 °F 6.2 °F 1018.2 in NE 9.0 mph 18.0 mph 53 % 0.0 in
06:48 15.8 °F 6.2 °F 1018.2 in NE 9.2 mph 20.6 mph 53 % 0.0 in
06:53 15.9 °F 6.1 °F 1018.2 in NE 10.8 mph 38.1 mph 52 % 0.0 in
06:58 16.0 °F 6.2 °F 1018.2 in NE 14.0 mph 38.1 mph 52 % 0.0 in
07:03 16.1 °F 6.2 °F 1018.2 in NE 15.9 mph 33.1 mph 52 % 0.0 in
07:08 16.1 °F 6.2 °F 1018.2 in NE 13.7 mph 33.1 mph 52 % 0.0 in
07:13 16.0 °F 6.4 °F 1018.2 in NE 10.6 mph 42.5 mph 53 % 0.0 in
07:18 15.9 °F 6.6 °F 1018.2 in NE 12.2 mph 42.5 mph 54 % 0.0 in
07:23 15.9 °F 6.6 °F 1018.2 in NNE 11.4 mph 30.6 mph 54 % 0.0 in
07:28 15.9 °F 6.9 °F 1018.2 in NE 9.0 mph 23.8 mph 55 % 0.0 in
07:33 15.8 °F 6.8 °F 1018.2 in ENE 9.2 mph 23.8 mph 55 % 0.0 in
07:38 15.8 °F 7.1 °F 1018.2 in ENE 12.1 mph 20.1 mph 56 % 0.0 in
07:43 15.6 °F 7.1 °F 1016.8 in NE 14.0 mph 14.0 mph 57 % 0.0 in
07:48 15.5 °F 7.3 °F 1016.8 in NNE 12.9 mph 13.7 mph 58 % 0.0 in
07:54 15.4 °F 7.2 °F 1016.8 in NNE 10.8 mph 23.0 mph 58 % 0.0 in
07:59 15.4 °F 7.2 °F 1018.2 in NE 9.2 mph 23.0 mph 58 % 0.0 in
08:04 15.4 °F 7.7 °F 1018.2 in ENE 6.8 mph 17.7 mph 60 % 0.0 in
08:09 15.4 °F 7.7 °F 1018.2 in ENE 6.3 mph 12.6 mph 60 % 0.0 in
08:14 15.5 °F 7.8 °F 1018.2 in ENE 5.5 mph 12.6 mph 60 % 0.0 in
08:19 15.6 °F 8.1 °F 1018.2 in East 2.9 mph 9.0 mph 61 % 0.0 in
08:24 15.7 °F 8.2 °F 1018.2 in South 3.7 mph 11.6 mph 61 % 0.0 in
08:29 15.8 °F 8.6 °F 1018.8 in SSW 5.0 mph 11.6 mph 62 % 0.0 in
08:34 15.9 °F 8.6 °F 1018.8 in SSW 4.5 mph 9.0 mph 62 % 0.0 in
08:39 15.9 °F 8.6 °F 1018.8 in SSW 5.3 mph 9.0 mph 62 % 0.0 in
08:44 16.0 °F 8.7 °F 1018.8 in SSW 5.5 mph 11.9 mph 62 % 0.0 in
08:49 16.1 °F 8.8 °F 1018.8 in SSW 6.0 mph 14.0 mph 62 % 0.0 in
08:54 16.3 °F 8.5 °F 1018.8 in South 6.9 mph 14.0 mph 60 % 0.0 in
08:59 16.5 °F 8.7 °F 1018.8 in East 4.5 mph 14.0 mph 60 % 0.0 in
09:04 16.8 °F 9.0 °F 1018.8 in WNW 4.7 mph 16.6 mph 60 % 0.0 in
09:09 17.0 °F 8.7 °F 1018.8 in NW 6.1 mph 16.6 mph 58 % 0.0 in
09:14 17.3 °F 8.9 °F 1018.8 in NE 5.6 mph 12.6 mph 58 % 0.0 in
09:19 17.7 °F 9.1 °F 1018.8 in East 5.0 mph 13.7 mph 57 % 0.0 in
09:24 18.1 °F 9.2 °F 1018.8 in East 6.4 mph 16.3 mph 56 % 0.0 in
09:29 18.4 °F 8.9 °F 1018.8 in ENE 6.8 mph 16.3 mph 54 % 0.0 in
09:34 18.6 °F 9.1 °F 1018.8 in NE 6.3 mph 12.2 mph 54 % 0.0 in
09:39 18.6 °F 8.8 °F 1018.8 in NE 7.7 mph 16.3 mph 53 % 0.0 in
09:44 19.0 °F 8.9 °F 1018.8 in NE 7.2 mph 16.3 mph 52 % 0.0 in
09:49 19.1 °F 9.0 °F 1018.8 in NNE 6.1 mph 16.3 mph 52 % 0.0 in
09:54 18.9 °F 8.6 °F 1018.8 in NNE 7.4 mph 16.6 mph 51 % 0.0 in
09:59 19.1 °F 9.0 °F 1019.9 in NE 8.0 mph 16.6 mph 52 % 0.0 in
10:04 19.3 °F 8.9 °F 1019.9 in NE 6.4 mph 14.0 mph 51 % 0.0 in
10:09 19.2 °F 8.8 °F 1019.9 in NNE 5.1 mph 9.7 mph 51 % 0.0 in
10:14 19.0 °F 8.6 °F 1019.9 in NE 4.8 mph 10.5 mph 51 % 0.0 in
10:19 18.9 °F 8.6 °F 1019.9 in NE 5.0 mph 13.0 mph 51 % 0.0 in
10:24 19.1 °F 8.7 °F 1019.9 in NE 6.4 mph 13.7 mph 51 % 0.0 in
10:29 19.3 °F 8.6 °F 1019.9 in NE 7.9 mph 19.8 mph 50 % 0.0 in
10:34 19.7 °F 8.7 °F 1019.9 in ENE 9.7 mph 20.1 mph 49 % 0.0 in
10:39 19.9 °F 8.9 °F 1019.9 in ENE 10.8 mph 21.6 mph 49 % 0.0 in
10:44 19.9 °F 8.6 °F 1019.9 in ENE 8.7 mph 21.6 mph 48 % 0.0 in
10:49 19.4 °F 8.1 °F 1019.9 in NE 9.7 mph 28.0 mph 48 % 0.0 in
10:54 19.2 °F 7.9 °F 1019.9 in NNE 10.8 mph 28.0 mph 48 % 0.0 in
10:59 19.6 °F 8.6 °F 1019.9 in NNE 8.7 mph 19.5 mph 49 % 0.0 in
11:04 19.9 °F 8.6 °F 1019.9 in NE 8.4 mph 19.5 mph 48 % 0.0 in
11:09 20.1 °F 8.4 °F 1019.9 in NNE 8.8 mph 16.3 mph 47 % 0.0 in
11:14 20.1 °F 8.4 °F 1019.9 in North 8.7 mph 19.5 mph 47 % 0.0 in
11:19 20.3 °F 8.6 °F 1019.9 in NE 8.8 mph 19.5 mph 47 % 0.0 in
11:24 20.5 °F 8.8 °F 1019.9 in NE 9.3 mph 19.1 mph 47 % 0.0 in
11:29 20.7 °F 9.0 °F 1019.9 in ENE 10.3 mph 26.7 mph 47 % 0.0 in
11:34 20.6 °F 8.9 °F 1019.9 in NE 10.8 mph 26.7 mph 47 % 0.0 in
11:39 20.6 °F 8.6 °F 1019.9 in NE 10.9 mph 25.6 mph 46 % 0.0 in
11:44 20.6 °F 8.9 °F 1019.9 in NE 10.5 mph 25.6 mph 47 % 0.0 in
11:49 20.7 °F 9.0 °F 1019.9 in NE 10.1 mph 20.9 mph 47 % 0.0 in
11:54 20.7 °F 8.7 °F 1019.9 in ENE 11.7 mph 27.0 mph 46 % 0.0 in
11:59 20.7 °F 9.0 °F 1019.9 in NE 11.7 mph 27.0 mph 47 % 0.0 in
12:04 20.7 °F 8.7 °F 1019.9 in NE 12.6 mph 31.4 mph 46 % 0.0 in
12:09 20.6 °F 8.9 °F 1019.9 in NE 12.4 mph 31.4 mph 47 % 0.0 in
12:14 20.6 °F 8.9 °F 1019.9 in NNE 10.3 mph 27.7 mph 47 % 0.0 in
12:19 20.5 °F 8.8 °F 1019.9 in NE 10.5 mph 27.7 mph 47 % 0.0 in
12:25 21.0 °F 9.6 °F 1019.9 in NE 8.7 mph 27.4 mph 48 % 0.0 in
12:30 20.9 °F 9.2 °F 1019.9 in NE 8.0 mph 15.8 mph 47 % 0.0 in
12:35 20.8 °F 9.4 °F 1019.9 in NE 8.7 mph 15.8 mph 48 % 0.0 in
12:40 21.1 °F 9.7 °F 1019.9 in NE 6.4 mph 15.4 mph 48 % 0.0 in
12:45 21.2 °F 9.4 °F 1019.9 in NE 7.7 mph 19.1 mph 47 % 0.0 in
12:50 20.8 °F 9.1 °F 1019.9 in NNE 10.6 mph 27.4 mph 47 % 0.0 in
12:55 20.9 °F 9.2 °F 1019.9 in NNE 10.0 mph 27.4 mph 47 % 0.0 in
13:00 21.2 °F 9.4 °F 1018.8 in ENE 8.8 mph 18.3 mph 47 % 0.0 in
13:05 21.2 °F 9.4 °F 1018.8 in ENE 8.2 mph 18.3 mph 47 % 0.0 in
13:10 21.1 °F 9.3 °F 1018.8 in North 8.8 mph 16.9 mph 47 % 0.0 in
13:15 21.4 °F 9.6 °F 1018.8 in North 9.5 mph 19.8 mph 47 % 0.0 in
13:20 21.7 °F 9.9 °F 1018.8 in NNE 7.6 mph 19.8 mph 47 % 0.0 in
13:25 21.6 °F 9.8 °F 1018.8 in ENE 7.2 mph 15.8 mph 47 % 0.0 in
13:30 21.9 °F 10.4 °F 1018.8 in NE 7.7 mph 14.3 mph 48 % 0.0 in
13:35 22.2 °F 10.3 °F 1018.8 in ENE 6.0 mph 11.6 mph 47 % 0.0 in
13:40 22.4 °F 10.6 °F 1018.8 in East 6.1 mph 15.4 mph 47 % 0.0 in
13:45 22.5 °F 10.6 °F 1019.9 in East 8.5 mph 17.2 mph 47 % 0.0 in
13:50 22.6 °F 10.4 °F 1019.9 in East 9.0 mph 17.2 mph 46 % 0.0 in
13:55 22.2 °F 10.0 °F 1019.9 in ENE 7.6 mph 15.8 mph 46 % 0.0 in
14:00 22.2 °F 10.3 °F 1019.9 in ENE 6.9 mph 14.0 mph 47 % 0.0 in
14:05 22.4 °F 10.6 °F 1019.9 in East 7.4 mph 13.0 mph 47 % 0.0 in
14:10 22.0 °F 9.8 °F 1019.9 in East 8.7 mph 27.7 mph 46 % 0.0 in
14:15 21.9 °F 9.8 °F 1019.9 in ENE 8.2 mph 27.7 mph 46 % 0.0 in
14:20 21.8 °F 10.0 °F 1019.9 in East 6.1 mph 15.8 mph 47 % 0.0 in
14:25 21.9 °F 9.8 °F 1019.9 in ESE 6.9 mph 16.3 mph 46 % 0.0 in
14:30 22.1 °F 9.9 °F 1019.9 in ENE 7.9 mph 19.5 mph 46 % 0.0 in
14:35 22.0 °F 9.8 °F 1019.9 in NE 7.1 mph 19.5 mph 46 % 0.0 in
14:40 22.2 °F 10.0 °F 1019.9 in NNE 6.0 mph 13.0 mph 46 % 0.0 in
14:45 22.4 °F 10.2 °F 1019.9 in NE 5.6 mph 11.9 mph 46 % 0.0 in
14:50 22.5 °F 9.9 °F 1019.9 in ENE 7.6 mph 16.9 mph 45 % 0.0 in
14:55 22.4 °F 9.9 °F 1019.9 in ENE 9.7 mph 16.9 mph 45 % 0.0 in
15:00 22.6 °F 10.1 °F 1019.9 in ENE 9.2 mph 16.9 mph 45 % 0.0 in
15:05 22.6 °F 10.1 °F 1019.9 in ENE 8.0 mph 23.0 mph 45 % 0.0 in
15:10 22.6 °F 10.1 °F 1019.9 in NE 8.4 mph 23.0 mph 45 % 0.0 in
15:15 22.7 °F 10.2 °F 1019.9 in ENE 9.5 mph 23.0 mph 45 % 0.0 in
15:20 22.5 °F 9.9 °F 1019.9 in ENE 9.5 mph 19.5 mph 45 % 0.0 in
15:25 22.4 °F 9.6 °F 1019.9 in NNE 8.0 mph 20.6 mph 44 % 0.0 in
15:30 22.6 °F 10.1 °F 1019.9 in North 8.4 mph 20.6 mph 45 % 0.0 in
15:35 22.5 °F 9.6 °F 1019.9 in NE 9.8 mph 22.4 mph 44 % 0.0 in
15:40 22.7 °F 10.2 °F 1019.9 in NE 9.2 mph 22.4 mph 45 % 0.0 in
15:45 22.9 °F 10.3 °F 1019.9 in ENE 7.6 mph 15.4 mph 45 % 0.0 in
15:50 23.0 °F 10.1 °F 1019.9 in NE 6.3 mph 12.2 mph 44 % 0.0 in
15:55 23.2 °F 10.3 °F 1019.9 in NE 6.1 mph 12.2 mph 44 % 0.0 in
16:00 23.2 °F 10.3 °F 1019.9 in ENE 7.6 mph 17.2 mph 44 % 0.0 in
16:05 23.1 °F 9.8 °F 1019.9 in NE 7.2 mph 18.3 mph 43 % 0.0 in
16:10 23.1 °F 9.8 °F 1019.9 in NE 7.1 mph 18.3 mph 43 % 0.0 in
16:15 23.0 °F 9.7 °F 1018.8 in NNE 8.2 mph 17.2 mph 43 % 0.0 in
16:20 23.1 °F 10.2 °F 1018.8 in NNE 7.4 mph 19.5 mph 44 % 0.0 in
16:25 22.7 °F 9.5 °F 1018.8 in North 9.2 mph 19.8 mph 43 % 0.0 in
16:30 22.8 °F 9.9 °F 1018.8 in North 8.2 mph 19.8 mph 44 % 0.0 in
16:35 22.9 °F 10.0 °F 1018.8 in NE 6.6 mph 16.3 mph 44 % 0.0 in
16:40 23.0 °F 9.7 °F 1018.8 in ENE 7.7 mph 19.5 mph 43 % 0.0 in
16:45 23.1 °F 9.8 °F 1019.9 in ENE 7.2 mph 19.5 mph 43 % 0.0 in
16:50 23.0 °F 9.7 °F 1019.9 in ENE 8.2 mph 20.1 mph 43 % 0.0 in
16:55 22.7 °F 9.5 °F 1019.9 in ENE 9.8 mph 20.1 mph 43 % 0.0 in
17:00 22.4 °F 9.2 °F 1019.9 in NE 9.8 mph 21.9 mph 43 % 0.0 in
17:05 22.3 °F 9.1 °F 1019.9 in NNE 9.8 mph 21.9 mph 43 % 0.0 in
17:10 22.4 °F 9.2 °F 1019.9 in NNE 9.0 mph 16.9 mph 43 % 0.0 in
17:15 22.4 °F 9.2 °F 1019.9 in NNE 8.8 mph 16.9 mph 43 % 0.0 in
17:20 22.4 °F 9.2 °F 1019.9 in NNE 7.6 mph 14.0 mph 43 % 0.0 in
17:25 22.5 °F 9.3 °F 1019.9 in East 7.4 mph 22.4 mph 43 % 0.0 in
17:30 22.6 °F 9.4 °F 1019.9 in East 8.2 mph 22.4 mph 43 % 0.0 in
17:35 22.6 °F 9.4 °F 1019.9 in NE 8.2 mph 17.2 mph 43 % 0.0 in
17:40 22.7 °F 9.5 °F 1019.9 in NE 8.5 mph 17.2 mph 43 % 0.0 in
17:45 22.7 °F 9.5 °F 1019.9 in NE 7.1 mph 14.0 mph 43 % 0.0 in
17:50 22.7 °F 9.5 °F 1019.9 in ENE 6.8 mph 15.8 mph 43 % 0.0 in
17:55 22.6 °F 9.4 °F 1019.9 in ENE 6.8 mph 15.8 mph 43 % 0.0 in
18:00 22.6 °F 9.4 °F 1019.9 in NE 5.6 mph 13.0 mph 43 % 0.0 in
18:05 22.5 °F 9.3 °F 1019.9 in ENE 5.3 mph 13.0 mph 43 % 0.0 in
18:11 22.5 °F 9.3 °F 1019.9 in ENE 4.5 mph 9.3 mph 43 % 0.0 in
18:15 22.4 °F 9.2 °F 1018.8 in ENE 3.9 mph 9.3 mph 43 % 0.0 in
18:20 22.1 °F 8.9 °F 1018.8 in East 4.0 mph 11.6 mph 43 % 0.0 in
18:25 21.9 °F 9.1 °F 1018.8 in ENE 5.6 mph 11.6 mph 44 % 0.0 in
18:30 21.8 °F 9.0 °F 1019.9 in ENE 6.0 mph 9.7 mph 44 % 0.0 in
18:35 21.6 °F 8.8 °F 1019.9 in ENE 4.3 mph 12.6 mph 44 % 0.0 in
18:40 21.4 °F 8.6 °F 1019.9 in NNE 5.1 mph 13.0 mph 44 % 0.0 in
18:45 21.2 °F 8.4 °F 1019.9 in NE 5.3 mph 18.0 mph 44 % 0.0 in
18:50 21.1 °F 8.4 °F 1019.9 in ENE 4.7 mph 18.0 mph 44 % 0.0 in
18:55 21.0 °F 8.3 °F 1019.9 in NE 6.1 mph 12.6 mph 44 % 0.0 in
19:00 21.0 °F 8.3 °F 1019.9 in ENE 5.8 mph 12.6 mph 44 % 0.0 in
19:05 20.9 °F 8.5 °F 1019.9 in ENE 3.4 mph 8.7 mph 45 % 0.0 in
19:10 20.7 °F 8.3 °F 1019.9 in ESE 2.9 mph 9.3 mph 45 % 0.0 in
19:15 20.6 °F 8.2 °F 1019.9 in ESE 3.7 mph 9.3 mph 45 % 0.0 in
19:20 20.4 °F 8.1 °F 1019.9 in ENE 2.4 mph 6.1 mph 45 % 0.0 in
19:25 20.3 °F 7.9 °F 1019.9 in NE 1.3 mph 6.1 mph 45 % 0.0 in
19:30 20.2 °F 8.2 °F 1019.9 in East 1.6 mph 6.1 mph 46 % 0.0 in
19:35 20.0 °F 8.3 °F 1019.9 in ENE 2.6 mph 6.1 mph 47 % 0.0 in
19:40 19.9 °F 7.9 °F 1019.9 in NNW 3.4 mph 5.5 mph 46 % 0.0 in
19:45 19.9 °F 8.2 °F 1019.9 in NW 2.7 mph 5.5 mph 47 % 0.0 in
19:50 19.7 °F 8.4 °F 1019.9 in ENE 0.8 mph 3.5 mph 48 % 0.0 in
19:55 19.4 °F 8.1 °F 1019.9 in NE 1.6 mph 6.1 mph 48 % 0.0 in
20:00 19.3 °F 8.0 °F 1019.9 in NE 2.6 mph 6.1 mph 48 % 0.0 in
20:05 19.2 °F 8.2 °F 1019.9 in ENE 2.4 mph 5.5 mph 49 % 0.0 in
20:10 19.0 °F 8.1 °F 1019.9 in East 2.3 mph 5.0 mph 49 % 0.0 in
20:16 18.8 °F 8.4 °F 1019.9 in East 1.8 mph 7.6 mph 51 % 0.0 in
20:21 18.6 °F 8.8 °F 1019.9 in ENE 2.1 mph 7.6 mph 53 % 0.0 in
20:26 18.1 °F 8.9 °F 1019.9 in NE 1.1 mph 6.1 mph 55 % 0.0 in
20:31 17.8 °F 9.2 °F 1019.9 in NE 0.3 mph 4.3 mph 57 % 0.0 in
20:36 17.5 °F 9.2 °F 1019.9 in NW 0.3 mph 4.0 mph 58 % 0.0 in
20:41 17.0 °F 9.2 °F 1019.9 in NW 1.4 mph 4.0 mph 60 % 0.0 in
20:46 16.7 °F 9.4 °F 1019.9 in NNW 2.3 mph 4.7 mph 62 % 0.0 in
20:51 16.5 °F 9.2 °F 1019.9 in NW 1.6 mph 4.7 mph 62 % 0.0 in
20:56 16.3 °F 9.2 °F 1019.9 in NW 0.8 mph 4.0 mph 63 % 0.0 in
21:01 16.1 °F 9.3 °F 1019.9 in WSW 0.3 mph 3.2 mph 64 % 0.0 in
21:06 15.9 °F 9.1 °F 1019.9 in SSW 1.9 mph 5.5 mph 64 % 0.0 in
21:11 15.9 °F 9.1 °F 1019.9 in SSW 4.0 mph 6.9 mph 64 % 0.0 in
21:16 15.7 °F 9.1 °F 1018.8 in SSW 2.6 mph 6.9 mph 65 % 0.0 in
21:21 15.6 °F 9.3 °F 1018.8 in ESE 0.3 mph 3.2 mph 66 % 0.0 in
21:26 15.4 °F 9.3 °F 1018.8 in Calm   1.8 mph 67 % 0.0 in
21:31 15.3 °F 9.4 °F 1019.9 in WNW 1.1 mph 5.0 mph 68 % 0.0 in
21:36 15.1 °F 9.4 °F 1019.9 in WNW 1.6 mph 5.0 mph 69 % 0.0 in
21:41 14.9 °F 9.5 °F 1019.9 in NW 0.5 mph 2.6 mph 70 % 0.0 in
21:46 14.7 °F 9.3 °F 1019.9 in NNW 0.8 mph 5.0 mph 70 % 0.0 in
21:51 14.6 °F 9.4 °F 1019.9 in NNW 1.4 mph 5.0 mph 71 % 0.0 in
21:56 14.5 °F 9.5 °F 1019.9 in NNW 1.1 mph 5.0 mph 72 % 0.0 in
22:01 14.4 °F 9.4 °F 1018.8 in NNW 0.8 mph 5.8 mph 72 % 0.0 in
22:06 14.3 °F 9.3 °F 1018.8 in NNW 1.0 mph 5.8 mph 72 % 0.0 in
22:11 14.2 °F 9.4 °F 1018.8 in NW 1.9 mph 6.4 mph 73 % 0.0 in
22:16 14.0 °F 9.2 °F 1018.8 in NW 1.9 mph 6.4 mph 73 % 0.0 in
22:21 13.9 °F 9.1 °F 1018.8 in WNW 0.8 mph 4.0 mph 73 % 0.0 in
22:26 13.8 °F 9.2 °F 1018.8 in WNW 0.6 mph 5.0 mph 74 % 0.0 in
22:31 13.7 °F 9.3 °F 1019.9 in West 0.5 mph 5.0 mph 75 % 0.0 in
22:36 13.6 °F 9.2 °F 1019.9 in NW 0.3 mph 4.3 mph 75 % 0.0 in
22:41 13.5 °F 8.9 °F 1019.9 in NNW 0.2 mph 3.2 mph 74 % 0.0 in
22:46 13.3 °F 9.2 °F 1018.8 in NNW 0.2 mph 3.2 mph 76 % 0.0 in
22:51 13.2 °F 9.1 °F 1018.8 in WNW 0.2 mph 3.5 mph 76 % 0.0 in
22:56 13.1 °F 8.9 °F 1018.8 in NW 0.8 mph 4.0 mph 76 % 0.0 in
23:01 13.0 °F 9.1 °F 1019.9 in NW 1.0 mph 4.0 mph 77 % 0.0 in
23:06 12.9 °F 9.2 °F 1019.9 in NW 0.3 mph 3.2 mph 78 % 0.0 in
23:11 12.8 °F 9.1 °F 1019.9 in NNW 0.6 mph 4.3 mph 78 % 0.0 in
23:16 12.8 °F 9.1 °F 1019.9 in NE 1.3 mph 4.3 mph 78 % 0.0 in
23:21 12.7 °F 8.9 °F 1019.9 in NNE 1.3 mph 4.3 mph 78 % 0.0 in
23:26 12.6 °F 9.1 °F 1019.9 in NNW 0.5 mph 4.0 mph 79 % 0.0 in
23:31 12.6 °F 9.1 °F 1019.9 in North 0.2 mph   79 % 0.0 in
23:36 12.6 °F 9.2 °F 1019.9 in NW 0.6 mph 4.7 mph 80 % 0.0 in
23:41 12.6 °F 9.2 °F 1019.9 in West 1.4 mph 4.7 mph 80 % 0.0 in
23:46 12.5 °F 9.2 °F 1019.9 in West 1.6 mph 4.3 mph 80 % 0.0 in
23:51 12.5 °F 9.2 °F 1019.9 in NNW 1.3 mph 4.3 mph 80 % 0.0 in
23:56 12.5 °F 9.3 °F 1019.9 in WNW 1.6 mph 5.0 mph 81 % 0.0 in
Vremenska postaja Senovo
Podatki zbrani iz Weather Underground - 3 mb

Script developed by  Jim McMurry - jmcmurry@mwt.net Adapted for the template by  Wim van der Kuil - Leuven-Template.eu

Vremenski podatki so objavljeni na:

European Weather Network

WeatherCloud

Weather Underground

AWEKAS

HAMweather, WeatherForYou, PWS Weather

MapView

Geostik

Slovenia weather network

Oprema, ki se uporablja:

Vremenski program
Cumulus

Vremenski server
Asus

Cumulus

Asus